createdAt,value
2019-04-27T00:01:23.329Z,100815.78
2019-04-27T00:04:11.744Z,100818.52
2019-04-27T00:06:46.449Z,100821.23
2019-04-27T00:09:25.061Z,100819.07
2019-04-27T00:12:00.091Z,100821.39
2019-04-27T00:14:30.151Z,100821.19
2019-04-27T00:17:21.116Z,100815.85
2019-04-27T00:19:58.314Z,100813.05
2019-04-27T00:22:50.186Z,100805.81
2019-04-27T00:25:20.260Z,100801.17
2019-04-27T00:27:50.466Z,100792.68
2019-04-27T00:30:20.675Z,100785.18
2019-04-27T00:32:50.781Z,100782.05
2019-04-27T00:35:30.320Z,100775.58
2019-04-27T00:38:17.408Z,100769.83
2019-04-27T00:40:57.779Z,100770.18
2019-04-27T00:43:27.866Z,100761.09
2019-04-27T00:45:57.931Z,100760.00
2019-04-27T00:48:28.028Z,100758.27
2019-04-27T00:50:58.150Z,100755.84
2019-04-27T00:53:28.233Z,100751.14
2019-04-27T00:56:17.253Z,100748.39
2019-04-27T00:59:18.746Z,100739.22
2019-04-27T01:02:06.883Z,100741.13
2019-04-27T01:04:39.314Z,100736.81
2019-04-27T01:07:10.547Z,100722.14
2019-04-27T01:09:40.651Z,100722.14
2019-04-27T01:12:11.319Z,100711.02
2019-04-27T01:14:42.798Z,100704.08
2019-04-27T01:17:13.240Z,100701.42
2019-04-27T01:19:43.320Z,100691.89
2019-04-27T01:22:13.802Z,100699.61
2019-04-27T01:24:43.890Z,100699.83
2019-04-27T01:27:31.867Z,100711.08
2019-04-27T01:30:02.056Z,100716.75
2019-04-27T01:32:33.967Z,100715.45
2019-04-27T01:35:03.975Z,100715.38
2019-04-27T01:37:34.038Z,100710.66
2019-04-27T01:40:05.708Z,100714.39
2019-04-27T01:42:35.793Z,100708.95
2019-04-27T01:45:06.439Z,100695.31
2019-04-27T01:47:36.510Z,100699.94
2019-04-27T01:50:08.635Z,100699.89
2019-04-27T01:52:38.703Z,100698.33
2019-04-27T01:55:08.788Z,100701.20
2019-04-27T01:57:38.852Z,100709.22
2019-04-27T02:00:29.479Z,100710.78
2019-04-27T02:03:01.389Z,100716.28
2019-04-27T02:05:49.256Z,100724.04
2019-04-27T02:08:19.661Z,100719.25
2019-04-27T02:10:49.803Z,100720.61
2019-04-27T02:13:20.323Z,100720.19
2019-04-27T02:15:50.440Z,100729.31
2019-04-27T02:18:20.507Z,100730.34
2019-04-27T02:20:59.675Z,100729.55
2019-04-27T02:23:29.745Z,100730.91
2019-04-27T02:25:59.839Z,100725.03
2019-04-27T02:28:51.699Z,100719.99
2019-04-27T02:31:43.617Z,100706.92
2019-04-27T02:34:16.450Z,100703.53
2019-04-27T02:36:46.569Z,100701.20
2019-04-27T02:39:16.679Z,100704.78
2019-04-27T02:41:46.753Z,100712.98
2019-04-27T02:44:19.961Z,100708.80
2019-04-27T02:46:50.499Z,100710.45
2019-04-27T02:49:20.659Z,100713.03
2019-04-27T02:52:15.998Z,100708.62
2019-04-27T02:54:46.094Z,100712.95
2019-04-27T02:57:16.172Z,100703.73
2019-04-27T02:59:46.253Z,100702.72
2019-04-27T03:02:35.281Z,100694.31
2019-04-27T03:05:06.401Z,100692.57
2019-04-27T03:07:36.472Z,100692.72
2019-04-27T03:10:06.873Z,100695.49
2019-04-27T03:12:42.853Z,100696.48
2019-04-27T03:15:23.685Z,100689.39
2019-04-27T03:18:11.079Z,100679.64
2019-04-27T03:21:00.301Z,100682.50
2019-04-27T03:23:30.511Z,100694.50
2019-04-27T03:26:10.535Z,100697.00
2019-04-27T03:28:40.441Z,100690.84
2019-04-27T03:31:13.642Z,100701.45
2019-04-27T03:33:43.305Z,100700.94
2019-04-27T03:36:13.623Z,100696.61
2019-04-27T03:38:43.706Z,100692.56
2019-04-27T03:41:13.975Z,100685.34
2019-04-27T03:43:44.055Z,100682.25
2019-04-27T03:46:14.134Z,100676.60
2019-04-27T03:48:44.195Z,100674.64
2019-04-27T03:51:32.168Z,100681.34
2019-04-27T03:54:22.197Z,100682.38
2019-04-27T03:57:10.476Z,100694.62
2019-04-27T03:59:59.667Z,100686.02
2019-04-27T04:02:30.561Z,100675.76
2019-04-27T04:05:00.792Z,100670.94
2019-04-27T04:07:30.840Z,100668.45
2019-04-27T04:10:00.938Z,100671.59
2019-04-27T04:12:39.771Z,100679.98
2019-04-27T04:15:11.887Z,100676.94
2019-04-27T04:17:41.961Z,100684.45
2019-04-27T04:20:12.163Z,100686.39
2019-04-27T04:22:42.242Z,100685.97
2019-04-27T04:25:12.324Z,100684.98
2019-04-27T04:27:42.830Z,100679.81
2019-04-27T04:30:13.099Z,100675.48
2019-04-27T04:32:43.182Z,100679.38
2019-04-27T04:35:21.869Z,100682.36
2019-04-27T04:37:52.845Z,100683.66
2019-04-27T04:40:30.800Z,100681.00
2019-04-27T04:43:10.863Z,100684.14
2019-04-27T04:45:50.100Z,100676.30
2019-04-27T04:48:20.433Z,100676.23
2019-04-27T04:50:50.505Z,100679.30
2019-04-27T04:53:20.906Z,100678.97
2019-04-27T04:55:51.009Z,100668.91
2019-04-27T04:58:21.289Z,100679.39
2019-04-27T05:00:51.331Z,100673.33
2019-04-27T05:03:21.923Z,100674.78
2019-04-27T05:05:52.151Z,100678.30
2019-04-27T05:08:22.224Z,100678.25
2019-04-27T05:10:52.284Z,100679.58
2019-04-27T05:13:22.375Z,100683.98
2019-04-27T05:15:52.459Z,100680.92
2019-04-27T05:18:22.570Z,100677.75
2019-04-27T05:21:10.463Z,100675.44
2019-04-27T05:23:40.557Z,100680.23
2019-04-27T05:26:10.643Z,100680.71
2019-04-27T05:28:40.946Z,100673.12
2019-04-27T05:31:10.975Z,100671.34
2019-04-27T05:33:41.049Z,100661.99
2019-04-27T05:36:11.139Z,100661.01
2019-04-27T05:38:45.881Z,100657.87
2019-04-27T05:41:13.037Z,100658.95
2019-04-27T05:43:49.418Z,100658.64
2019-04-27T05:46:41.106Z,100660.64
2019-04-27T05:49:16.649Z,100663.69
2019-04-27T05:51:48.470Z,100666.01
2019-04-27T05:54:19.238Z,100653.67
2019-04-27T05:56:49.419Z,100654.98
2019-04-27T05:59:19.959Z,100657.95
2019-04-27T06:01:50.143Z,100651.09
2019-04-27T06:04:20.229Z,100651.72
2019-04-27T06:06:50.289Z,100644.09
2019-04-27T06:09:20.391Z,100641.61
2019-04-27T06:11:50.816Z,100641.97
2019-04-27T06:14:20.983Z,100648.98
2019-04-27T06:16:51.492Z,100648.16
2019-04-27T06:19:21.561Z,100632.34
2019-04-27T06:21:51.652Z,100641.34
2019-04-27T06:24:21.734Z,100637.02
2019-04-27T06:26:51.821Z,100637.33
2019-04-27T06:29:21.926Z,100641.06
2019-04-27T06:31:52.001Z,100639.68
2019-04-27T06:34:22.121Z,100636.87
2019-04-27T06:36:52.219Z,100637.67
2019-04-27T06:39:22.309Z,100636.83
2019-04-27T06:41:52.409Z,100640.37
2019-04-27T06:44:22.514Z,100641.80
2019-04-27T06:46:52.679Z,100632.52
2019-04-27T06:49:22.791Z,100628.98
2019-04-27T06:51:52.923Z,100634.08
2019-04-27T06:54:23.027Z,100634.31
2019-04-27T06:56:53.091Z,100640.47
2019-04-27T06:59:23.174Z,100637.22
2019-04-27T07:01:53.270Z,100635.40
2019-04-27T07:04:23.392Z,100637.06
2019-04-27T07:06:56.118Z,100632.96
2019-04-27T07:09:25.363Z,100631.52
2019-04-27T07:11:55.501Z,100635.02
2019-04-27T07:14:25.605Z,100632.72
2019-04-27T07:16:55.749Z,100631.01
2019-04-27T07:19:25.987Z,100637.11
2019-04-27T07:21:56.151Z,100636.83
2019-04-27T07:24:26.222Z,100628.13
2019-04-27T07:26:56.466Z,100620.88
2019-04-27T07:29:26.608Z,100622.05
2019-04-27T07:31:57.016Z,100625.26
2019-04-27T07:34:29.032Z,100622.61
2019-04-27T07:36:59.802Z,100628.77
2019-04-27T07:39:30.111Z,100622.71
2019-04-27T07:42:01.035Z,100622.95
2019-04-27T07:44:39.116Z,100625.80
2019-04-27T07:47:34.951Z,100621.39
2019-04-27T07:50:05.313Z,100625.52
2019-04-27T07:52:37.846Z,100629.38
2019-04-27T07:55:09.362Z,100615.58
2019-04-27T07:57:40.055Z,100610.95
2019-04-27T08:00:10.447Z,100612.30
2019-04-27T08:02:40.576Z,100612.55
2019-04-27T08:05:10.655Z,100610.36
2019-04-27T08:07:41.189Z,100611.70
2019-04-27T08:10:11.938Z,100610.14
2019-04-27T08:12:42.090Z,100614.19
2019-04-27T08:15:12.307Z,100608.81
2019-04-27T08:17:42.912Z,100608.18
2019-04-27T08:20:13.199Z,100606.20
2019-04-27T08:22:43.301Z,100605.08
2019-04-27T08:25:13.429Z,100607.00
2019-04-27T08:28:00.295Z,100602.08
2019-04-27T08:30:49.531Z,100600.19
2019-04-27T08:33:19.635Z,100603.59
2019-04-27T08:35:49.760Z,100606.08
2019-04-27T08:38:20.684Z,100602.40
2019-04-27T08:40:50.886Z,100594.48
2019-04-27T08:43:21.006Z,100605.67
2019-04-27T08:45:51.081Z,100597.95
2019-04-27T08:48:33.949Z,100599.36
2019-04-27T08:50:53.047Z,100603.05
2019-04-27T08:53:23.147Z,100599.09
2019-04-27T08:55:53.246Z,100595.20
2019-04-27T08:58:23.395Z,100592.17
2019-04-27T09:00:53.487Z,100596.39
2019-04-27T09:03:23.602Z,100597.52
2019-04-27T09:05:53.721Z,100602.34
2019-04-27T09:08:42.135Z,100593.73
2019-04-27T09:11:34.174Z,100595.44
2019-04-27T09:14:14.213Z,100591.78
2019-04-27T09:17:02.216Z,100596.14
2019-04-27T09:19:53.865Z,100596.72
2019-04-27T09:22:23.993Z,100588.38
2019-04-27T09:24:54.120Z,100590.38
2019-04-27T09:27:24.244Z,100583.10
2019-04-27T09:29:54.339Z,100583.02
2019-04-27T09:32:24.473Z,100586.37
2019-04-27T09:34:54.571Z,100583.10
2019-04-27T09:37:24.643Z,100574.06
2019-04-27T09:39:56.123Z,100584.69
2019-04-27T09:42:26.818Z,100571.60
2019-04-27T09:44:57.139Z,100561.38
2019-04-27T09:47:27.219Z,100562.69
2019-04-27T09:49:57.349Z,100561.26
2019-04-27T09:52:28.699Z,100555.92
2019-04-27T09:54:58.832Z,100554.14
2019-04-27T09:57:28.892Z,100560.69
2019-04-27T09:59:59.008Z,100548.00
2019-04-27T10:02:29.089Z,100544.30
2019-04-27T10:04:59.217Z,100540.05
2019-04-27T10:07:29.299Z,100546.69
2019-04-27T10:10:01.201Z,100541.30
2019-04-27T10:12:34.186Z,100537.70
2019-04-27T10:15:03.331Z,100540.14
2019-04-27T10:17:33.426Z,100529.05
2019-04-27T10:20:03.535Z,100542.94
2019-04-27T10:22:41.118Z,100538.77
2019-04-27T10:25:06.526Z,100541.44
2019-04-27T10:27:36.713Z,100536.19
2019-04-27T10:30:09.044Z,100537.80
2019-04-27T10:32:39.232Z,100538.83
2019-04-27T10:35:09.461Z,100530.82
2019-04-27T10:37:39.596Z,100522.00
2019-04-27T10:40:09.808Z,100524.72
2019-04-27T10:42:39.890Z,100524.56
2019-04-27T10:45:11.865Z,100523.25
2019-04-27T10:47:41.970Z,100523.11
2019-04-27T10:50:12.285Z,100517.41
2019-04-27T10:52:52.848Z,100510.71
2019-04-27T10:55:16.021Z,100510.80
2019-04-27T10:57:46.301Z,100502.58
2019-04-27T11:00:20.318Z,100502.06
2019-04-27T11:02:50.411Z,100505.32
2019-04-27T11:05:32.052Z,100504.92
2019-04-27T11:08:02.164Z,100510.00
2019-04-27T11:10:32.243Z,100506.37
2019-04-27T11:13:02.928Z,100507.52
2019-04-27T11:15:33.096Z,100505.45
2019-04-27T11:18:03.197Z,100500.73
2019-04-27T11:20:33.312Z,100500.23
2019-04-27T11:23:09.360Z,100486.98
2019-04-27T11:25:36.476Z,100491.46
2019-04-27T11:28:06.610Z,100501.22
2019-04-27T11:30:36.811Z,100502.45
2019-04-27T11:33:06.951Z,100501.65
2019-04-27T11:36:06.283Z,100491.06
2019-04-27T11:38:36.603Z,100494.19
2019-04-27T11:41:07.557Z,100492.75
2019-04-27T11:43:37.723Z,100483.55
2019-04-27T11:46:07.841Z,100476.14
2019-04-27T11:48:37.949Z,100481.77
2019-04-27T11:51:10.918Z,100474.97
2019-04-27T11:53:39.917Z,100472.13
2019-04-27T11:56:10.181Z,100464.37
2019-04-27T11:58:40.280Z,100474.56
2019-04-27T12:01:10.407Z,100466.14
2019-04-27T12:03:40.575Z,100474.64
2019-04-27T12:06:10.731Z,100471.14
2019-04-27T12:08:41.597Z,100463.91
2019-04-27T12:11:12.154Z,100473.30
2019-04-27T12:13:42.264Z,100471.44
2019-04-27T12:16:21.466Z,100467.72
2019-04-27T12:18:51.553Z,100457.25
2019-04-27T12:21:21.696Z,100466.14
2019-04-27T12:23:51.799Z,100468.91
2019-04-27T12:26:39.689Z,100473.22
2019-04-27T12:29:11.670Z,100471.30
2019-04-27T12:31:46.448Z,100464.50
2019-04-27T12:34:16.302Z,100459.47
2019-04-27T12:36:46.522Z,100449.89
2019-04-27T12:39:16.641Z,100447.17
2019-04-27T12:41:46.740Z,100444.91
2019-04-27T12:44:16.892Z,100437.37
2019-04-27T12:46:47.127Z,100451.41
2019-04-27T12:49:17.262Z,100437.37
2019-04-27T12:51:47.442Z,100452.10
2019-04-27T12:54:26.880Z,100441.22
2019-04-27T12:57:20.796Z,100434.80
2019-04-27T13:00:08.268Z,100438.00
2019-04-27T13:02:38.517Z,100433.22
2019-04-27T13:05:09.722Z,100422.05
2019-04-27T13:07:39.846Z,100423.45
2019-04-27T13:10:10.039Z,100434.23
2019-04-27T13:12:40.127Z,100426.36
2019-04-27T13:15:11.063Z,100425.40
2019-04-27T13:17:41.264Z,100418.50
2019-04-27T13:20:11.398Z,100415.27
2019-04-27T13:22:41.563Z,100413.06
2019-04-27T13:25:13.342Z,100412.36
2019-04-27T13:27:43.413Z,100409.13
2019-04-27T13:30:13.713Z,100404.30
2019-04-27T13:32:43.790Z,100395.50
2019-04-27T13:35:15.714Z,100395.68
2019-04-27T13:37:46.727Z,100401.88
2019-04-27T13:40:17.470Z,100403.98
2019-04-27T13:43:02.595Z,100404.74
2019-04-27T13:46:12.627Z,100405.84
2019-04-27T13:49:03.976Z,100410.02
2019-04-27T13:51:40.349Z,100457.52
2019-04-27T13:54:18.644Z,100467.86
2019-04-27T13:56:42.273Z,100458.82
2019-04-27T13:59:15.096Z,100481.78
2019-04-27T14:01:45.236Z,100495.16
2019-04-27T14:04:15.376Z,100495.48
2019-04-27T14:06:45.549Z,100496.80
2019-04-27T14:09:15.704Z,100496.72
2019-04-27T14:11:45.843Z,100486.14
2019-04-27T14:14:16.052Z,100486.92
2019-04-27T14:16:46.158Z,100485.00
2019-04-27T14:19:16.291Z,100492.78
2019-04-27T14:21:46.492Z,100493.69
2019-04-27T14:24:27.462Z,100495.28
2019-04-27T14:26:48.650Z,100486.94
2019-04-27T14:29:19.004Z,100481.21
2019-04-27T14:31:49.820Z,100497.34
2019-04-27T14:34:20.020Z,100503.16
2019-04-27T14:36:50.152Z,100503.19
2019-04-27T14:39:20.463Z,100508.84
2019-04-27T14:41:50.606Z,100490.66
2019-04-27T14:44:20.744Z,100500.75
2019-04-27T14:46:50.867Z,100514.59
2019-04-27T14:49:20.971Z,100511.13
2019-04-27T14:51:51.083Z,100513.25
2019-04-27T14:54:21.196Z,100519.80
2019-04-27T14:56:51.363Z,100513.38
2019-04-27T14:59:21.448Z,100513.30
2019-04-27T15:01:51.719Z,100524.27
2019-04-27T15:04:21.823Z,100527.69
2019-04-27T15:06:51.967Z,100525.80
2019-04-27T15:09:23.919Z,100521.30
2019-04-27T15:11:54.988Z,100518.37
2019-04-27T15:14:25.700Z,100519.44
2019-04-27T15:16:56.524Z,100521.14
2019-04-27T15:19:34.823Z,100515.34
2019-04-27T15:22:06.302Z,100508.13
2019-04-27T15:24:36.409Z,100507.31
2019-04-27T15:27:08.284Z,100504.29
2019-04-27T15:29:38.403Z,100504.34
2019-04-27T15:32:12.959Z,100505.80
2019-04-27T15:34:53.215Z,100508.61
2019-04-27T15:37:34.196Z,100508.07
2019-04-27T15:40:36.448Z,100510.39
2019-04-27T15:43:27.296Z,100516.88
2019-04-27T15:45:57.761Z,100518.94
2019-04-27T15:48:30.520Z,100517.19
2019-04-27T15:51:02.891Z,100516.27
2019-04-27T15:53:30.683Z,100530.84
2019-04-27T15:56:01.949Z,100532.55
2019-04-27T15:58:32.195Z,100533.20
2019-04-27T16:01:06.723Z,100525.84
2019-04-27T16:03:35.548Z,100537.58
2019-04-27T16:06:08.217Z,100537.16
2019-04-27T16:08:44.331Z,100539.20
2019-04-27T16:11:16.293Z,100540.51
2019-04-27T16:13:41.436Z,100539.34
2019-04-27T16:16:11.646Z,100546.25
2019-04-27T16:18:41.809Z,100545.22
2019-04-27T16:21:11.946Z,100557.67
2019-04-27T16:23:43.210Z,100559.69
2019-04-27T16:26:15.106Z,100560.55
2019-04-27T16:28:49.722Z,100563.86
2019-04-27T16:31:18.624Z,100557.11
2019-04-27T16:33:49.655Z,100565.41
2019-04-27T16:36:20.287Z,100560.66
2019-04-27T16:38:56.139Z,100560.48
2019-04-27T16:41:28.057Z,100566.19
2019-04-27T16:43:58.262Z,100572.95
2019-04-27T16:46:28.600Z,100574.54
2019-04-27T16:48:59.485Z,100573.17
2019-04-27T16:51:35.936Z,100579.55
2019-04-27T16:54:01.591Z,100577.19
2019-04-27T16:56:31.703Z,100579.50
2019-04-27T16:59:20.889Z,100580.82
2019-04-27T17:01:33.664Z,100587.86
2019-04-27T17:04:06.460Z,100590.15
2019-04-27T17:06:40.734Z,100587.13
2019-04-27T17:09:11.474Z,100584.37
2019-04-27T17:11:43.901Z,100586.31
2019-04-27T17:14:34.768Z,100583.38
2019-04-27T17:17:21.804Z,100583.63
2019-04-27T17:19:58.655Z,100577.30
2019-04-27T17:22:28.986Z,100581.09
2019-04-27T17:24:59.072Z,100581.23
2019-04-27T17:27:38.359Z,100581.78
2019-04-27T17:30:10.022Z,100577.88
2019-04-27T17:32:51.091Z,100588.42
2019-04-27T17:35:21.297Z,100585.67
2019-04-27T17:37:54.223Z,100591.15
2019-04-27T17:40:23.246Z,100591.77
2019-04-27T17:42:53.386Z,100597.88
2019-04-27T17:45:23.600Z,100591.50
2019-04-27T17:47:53.730Z,100600.48
2019-04-27T17:50:25.173Z,100598.20
2019-04-27T17:52:57.379Z,100605.85
2019-04-27T17:55:27.943Z,100603.66
2019-04-27T17:58:04.962Z,100615.16
2019-04-27T18:00:32.970Z,100618.88
2019-04-27T18:03:02.217Z,100612.11
2019-04-27T18:05:32.363Z,100613.02
2019-04-27T18:08:02.560Z,100609.64
2019-04-27T18:10:32.667Z,100616.95
2019-04-27T18:13:02.793Z,100616.44
2019-04-27T18:15:32.922Z,100617.92
2019-04-27T18:18:10.959Z,100624.94
2019-04-27T18:20:41.113Z,100628.95
2019-04-27T18:23:16.210Z,100624.11
2019-04-27T18:25:52.339Z,100628.33
2019-04-27T18:28:25.572Z,100626.48
2019-04-27T18:31:15.928Z,100634.66
2019-04-27T18:33:45.068Z,100638.56
2019-04-27T18:36:15.336Z,100637.51
2019-04-27T18:38:45.547Z,100642.34
2019-04-27T18:41:15.914Z,100646.59
2019-04-27T18:43:51.308Z,100652.78
2019-04-27T18:46:21.727Z,100653.27
2019-04-27T18:49:09.498Z,100653.39
2019-04-27T18:52:04.284Z,100659.29
2019-04-27T18:54:38.229Z,100662.58
2019-04-27T18:57:06.084Z,100671.54
2019-04-27T18:59:38.066Z,100674.28
2019-04-27T19:02:08.632Z,100675.08
2019-04-27T19:04:38.884Z,100679.99
2019-04-27T19:07:09.525Z,100675.67
2019-04-27T19:09:40.095Z,100686.88
2019-04-27T19:12:10.424Z,100682.69
2019-04-27T19:14:41.148Z,100687.72
2019-04-27T19:17:12.032Z,100695.28
2019-04-27T19:19:44.970Z,100688.36
2019-04-27T19:22:15.852Z,100700.58
2019-04-27T19:24:46.669Z,100701.22
2019-04-27T19:27:42.601Z,100704.47
2019-04-27T19:30:28.044Z,100713.37
2019-04-27T19:32:58.603Z,100715.23
2019-04-27T19:35:30.256Z,100724.87
2019-04-27T19:38:01.116Z,100719.54
2019-04-27T19:40:31.953Z,100721.60
2019-04-27T19:43:05.363Z,100719.96
2019-04-27T19:45:35.698Z,100723.30
2019-04-27T19:48:05.991Z,100718.27
2019-04-27T19:50:36.341Z,100720.48
2019-04-27T19:53:06.535Z,100718.28
2019-04-27T19:55:36.705Z,100717.56
2019-04-27T19:58:08.042Z,100711.97
2019-04-27T20:00:44.824Z,100719.97
2019-04-27T20:03:19.333Z,100725.30
2019-04-27T20:05:49.581Z,100731.09
2019-04-27T20:08:23.383Z,100735.42
2019-04-27T20:10:53.562Z,100731.68
2019-04-27T20:13:23.916Z,100734.61
2019-04-27T20:15:54.138Z,100737.02
2019-04-27T20:18:24.413Z,100745.38
2019-04-27T20:20:55.231Z,100740.88
2019-04-27T20:23:25.628Z,100751.75
2019-04-27T20:25:55.870Z,100747.52
2019-04-27T20:28:26.072Z,100752.95
2019-04-27T20:30:56.350Z,100750.23
2019-04-27T20:33:26.505Z,100758.65
2019-04-27T20:35:56.671Z,100760.86
2019-04-27T20:38:26.823Z,100758.78
2019-04-27T20:40:56.932Z,100758.91
2019-04-27T20:43:27.027Z,100759.91
2019-04-27T20:45:57.684Z,100753.72
2019-04-27T20:48:27.835Z,100761.66
2019-04-27T20:50:57.981Z,100761.66
2019-04-27T20:53:32.587Z,100759.45
2019-04-27T20:56:02.659Z,100751.64
2019-04-27T20:58:32.924Z,100767.62
2019-04-27T21:01:03.032Z,100765.41
2019-04-27T21:03:37.871Z,100774.00
2019-04-27T21:06:24.995Z,100779.97
2019-04-27T21:08:55.125Z,100777.00
2019-04-27T21:11:26.884Z,100779.73
2019-04-27T21:13:57.138Z,100774.71
2019-04-27T21:16:27.259Z,100775.30
2019-04-27T21:18:57.383Z,100776.53
2019-04-27T21:21:27.482Z,100781.68
2019-04-27T21:23:57.601Z,100782.38
2019-04-27T21:26:27.721Z,100782.38
2019-04-27T21:28:57.823Z,100790.01
2019-04-27T21:31:27.896Z,100789.34
2019-04-27T21:33:58.015Z,100791.67
2019-04-27T21:36:28.165Z,100795.15
2019-04-27T21:38:58.276Z,100795.03
2019-04-27T21:41:28.396Z,100794.73
2019-04-27T21:43:58.517Z,100799.64
2019-04-27T21:46:31.713Z,100804.94
2019-04-27T21:49:02.879Z,100804.69
2019-04-27T21:51:34.714Z,100796.94
2019-04-27T21:54:17.413Z,100806.75
2019-04-27T21:56:47.480Z,100807.79
2019-04-27T21:59:21.073Z,100805.86
2019-04-27T22:01:55.481Z,100807.91
2019-04-27T22:04:27.150Z,100806.98
2019-04-27T22:06:57.251Z,100810.81
2019-04-27T22:09:28.075Z,100809.08
2019-04-27T22:11:58.515Z,100807.33
2019-04-27T22:14:28.593Z,100812.25
2019-04-27T22:16:58.711Z,100810.94
2019-04-27T22:19:31.131Z,100815.73
2019-04-27T22:22:03.027Z,100811.47
2019-04-27T22:24:36.323Z,100814.84
2019-04-27T22:27:06.417Z,100819.44
2019-04-27T22:29:36.506Z,100812.45
2019-04-27T22:32:06.625Z,100816.54
2019-04-27T22:34:36.721Z,100814.27
2019-04-27T22:37:06.801Z,100817.47
2019-04-27T22:39:46.629Z,100821.11
2019-04-27T22:42:51.638Z,100821.80
2019-04-27T22:45:25.084Z,100814.34
2019-04-27T22:47:55.159Z,100818.20
2019-04-27T22:50:25.273Z,100815.66
2019-04-27T22:52:56.835Z,100826.06
2019-04-27T22:55:27.011Z,100830.20
2019-04-27T22:58:14.055Z,100825.20
2019-04-27T23:00:55.415Z,100825.83
2019-04-27T23:03:31.264Z,100827.65
2019-04-27T23:06:01.479Z,100828.15
2019-04-27T23:08:32.178Z,100831.59
2019-04-27T23:11:02.649Z,100829.73
2019-04-27T23:13:32.779Z,100837.23
2019-04-27T23:16:04.747Z,100835.64
2019-04-27T23:18:34.887Z,100840.30
2019-04-27T23:21:05.037Z,100839.76
2019-04-27T23:23:35.143Z,100837.23
2019-04-27T23:26:05.305Z,100842.53
2019-04-27T23:28:35.498Z,100845.05
2019-04-27T23:31:27.640Z,100845.48
2019-04-27T23:33:57.755Z,100841.47
2019-04-27T23:36:27.861Z,100841.19
2019-04-27T23:38:57.979Z,100838.91
2019-04-27T23:41:28.071Z,100842.05
2019-04-27T23:43:58.181Z,100839.99
2019-04-27T23:46:28.280Z,100845.02
2019-04-27T23:48:58.368Z,100840.72
2019-04-27T23:51:38.267Z,100841.72
2019-04-27T23:54:08.378Z,100843.61
2019-04-27T23:56:38.475Z,100845.53
2019-04-27T23:59:08.578Z,100848.94
